Time;durP1;ratioP1;P1;durP2;ratioP2;P2;SDS_P1;SDS_P2;PMS_P1;PMS_P2;Temp;Humidity;BMP_temperature;BMP_pressure;BME280_temperature;BME280_humidity;BME280_pressure;Samples;Min_cycle;Max_cycle;Signal;HPM_P1;HPM_P2
2021/12/18 00:01:17;;;;;;;78.65;15.77;;;;;;;;;;5053652;28;20276;-65
2021/12/18 00:03:44;;;;;;;78.10;16.58;;;;;;;;;;5053789;28;20292;-64
2021/12/18 00:06:12;;;;;;;74.93;14.30;;;;;;;;;;5052949;28;20296;-64
2021/12/18 00:08:39;;;;;;;80.10;16.08;;;;;;;;;;5053264;28;20237;-65
2021/12/18 00:11:07;;;;;;;78.55;15.82;;;;;;;;;;5053611;28;20261;-64
2021/12/18 00:13:34;;;;;;;78.03;15.18;;;;;;;;;;5053829;28;20205;-65
2021/12/18 00:16:01;;;;;;;76.80;13.88;;;;;;;;;;5053425;28;20236;-64
2021/12/18 00:18:30;;;;;;;80.45;15.23;;;;;;;;;;5053385;28;20292;-65
2021/12/18 00:20:58;;;;;;;78.38;15.45;;;;;;;;;;5053221;28;20229;-64
2021/12/18 00:23:25;;;;;;;78.45;15.00;;;;;;;;;;5053382;28;20596;-64
2021/12/18 00:25:52;;;;;;;75.75;13.07;;;;;;;;;;5053101;28;20237;-65
2021/12/18 00:28:19;;;;;;;76.88;13.90;;;;;;;;;;5052844;28;20677;-64
2021/12/18 00:30:47;;;;;;;80.95;13.98;;;;;;;;;;5052899;28;20316;-65
2021/12/18 00:33:14;;;;;;;76.30;14.25;;;;;;;;;;5053071;28;20240;-64
2021/12/18 00:35:42;;;;;;;74.72;13.93;;;;;;;;;;5052609;28;20705;-64
2021/12/18 00:38:10;;;;;;;75.22;13.85;;;;;;;;;;5052603;28;20202;-64
2021/12/18 00:40:46;;;;;;;80.45;16.70;;;;;;;;;;5052999;28;20222;-64
2021/12/18 00:43:26;;;;;;;77.30;14.63;;;;;;;;;;5053006;28;20209;-65
2021/12/18 00:45:53;;;;;;;77.65;12.85;;;;;;;;;;5052681;28;20670;-64
2021/12/18 00:48:20;;;;;;;75.45;14.60;;;;;;;;;;5052315;28;20301;-64
2021/12/18 00:50:49;;;;;;;81.03;15.00;;;;;;;;;;5052793;28;20232;-64
2021/12/18 00:53:17;;;;;;;76.47;14.45;;;;;;;;;;5052549;28;20249;-65
2021/12/18 00:55:44;;;;;;;77.30;14.15;;;;;;;;;;5052288;28;20312;-64
2021/12/18 00:58:11;;;;;;;79.75;15.15;;;;;;;;;;5052487;28;20205;-64
2021/12/18 01:00:40;;;;;;;76.40;14.48;;;;;;;;;;5052631;28;20283;-64
2021/12/18 01:03:15;;;;;;;78.68;14.80;;;;;;;;;;5052825;28;20205;-64
2021/12/18 01:05:42;;;;;;;78.50;15.13;;;;;;;;;;5052622;28;20213;-64
2021/12/18 01:08:10;;;;;;;77.68;14.02;;;;;;;;;;5051995;28;20741;-65
2021/12/18 01:10:53;;;;;;;76.30;13.60;;;;;;;;;;5052354;28;20257;-64
2021/12/18 01:13:25;;;;;;;76.93;13.05;;;;;;;;;;5052286;28;20209;-64
2021/12/18 01:15:55;;;;;;;81.55;14.02;;;;;;;;;;5052036;28;20698;-64
2021/12/18 01:23:53;;;;;;;79.28;14.70;;;;;;;;;;5052156;28;20604;-65
2021/12/18 01:26:20;;;;;;;79.32;15.13;;;;;;;;;;5052178;28;20289;-64
2021/12/18 01:28:47;;;;;;;80.28;14.98;;;;;;;;;;5051827;28;20292;-65
2021/12/18 01:31:15;;;;;;;81.20;16.08;;;;;;;;;;5051966;28;20314;-64
2021/12/18 01:33:42;;;;;;;76.63;14.52;;;;;;;;;;5051981;28;20245;-65
2021/12/18 01:36:09;;;;;;;80.53;15.32;;;;;;;;;;5051633;28;20221;-65
2021/12/18 01:38:37;;;;;;;78.35;15.65;;;;;;;;;;5051737;28;20302;-64
2021/12/18 01:41:05;;;;;;;78.55;14.82;;;;;;;;;;5051982;28;20666;-65
2021/12/18 01:46:35;;;;;;;80.72;15.02;;;;;;;;;;5051262;28;20197;-64
2021/12/18 01:52:02;;;;;;;82.68;15.50;;;;;;;;;;5052065;28;20715;-64
2021/12/18 01:54:30;;;;;;;78.22;14.43;;;;;;;;;;5052008;28;20229;-64
2021/12/18 01:57:00;;;;;;;77.70;15.35;;;;;;;;;;5051356;28;20641;-63
2021/12/18 01:59:34;;;;;;;79.20;13.88;;;;;;;;;;5051087;28;20221;-64
2021/12/18 02:02:01;;;;;;;83.20;15.30;;;;;;;;;;5051472;28;20207;-64
2021/12/18 02:04:28;;;;;;;79.07;15.40;;;;;;;;;;5051781;28;20805;-64
2021/12/18 02:06:55;;;;;;;78.50;13.93;;;;;;;;;;5051515;28;20205;-64
2021/12/18 02:09:27;;;;;;;79.95;15.20;;;;;;;;;;5051487;28;20621;-65
2021/12/18 02:11:54;;;;;;;83.38;16.23;;;;;;;;;;5051695;28;20217;-64
2021/12/18 02:19:30;;;;;;;79.57;15.15;;;;;;;;;;5051553;28;20594;-64
2021/12/18 02:20:21;;;;;;;84.25;16.95;;;;;;;;;;5051583;28;20263;-64
2021/12/18 02:22:48;;;;;;;78.25;15.00;;;;;;;;;;5051529;28;20296;-64
2021/12/18 02:25:16;;;;;;;79.20;13.65;;;;;;;;;;5051557;28;20241;-64
2021/12/18 02:27:43;;;;;;;78.18;14.98;;;;;;;;;;5051126;28;20621;-64
2021/12/18 02:30:11;;;;;;;83.47;15.00;;;;;;;;;;5052886;28;20228;-64
2021/12/18 02:32:39;;;;;;;78.00;15.35;;;;;;;;;;5055173;28;20205;-64
2021/12/18 02:35:10;;;;;;;80.00;16.13;;;;;;;;;;5054983;28;20226;-65
2021/12/18 02:37:40;;;;;;;77.00;14.15;;;;;;;;;;5053472;28;20220;-63
2021/12/18 02:42:53;;;;;;;76.70;14.00;;;;;;;;;;5055347;28;20800;-65
2021/12/18 02:45:21;;;;;;;80.57;13.63;;;;;;;;;;5055157;28;20575;-64
2021/12/18 02:47:49;;;;;;;78.13;14.55;;;;;;;;;;5055087;28;20304;-64
2021/12/18 02:50:17;;;;;;;87.93;15.48;;;;;;;;;;5055064;28;20232;-64
2021/12/18 02:52:44;;;;;;;81.22;15.68;;;;;;;;;;5055152;28;20304;-64
2021/12/18 02:55:12;;;;;;;80.43;15.25;;;;;;;;;;5054906;28;20590;-64
2021/12/18 02:57:39;;;;;;;84.72;15.95;;;;;;;;;;5054695;28;20212;-64
2021/12/18 03:00:07;;;;;;;81.93;15.65;;;;;;;;;;5054919;28;20222;-65
2021/12/18 03:02:40;;;;;;;78.03;14.45;;;;;;;;;;5054907;28;20213;-65
2021/12/18 03:05:10;;;;;;;77.75;14.45;;;;;;;;;;5054768;28;20205;-64
2021/12/18 03:07:38;;;;;;;76.05;13.77;;;;;;;;;;5055196;28;20275;-64
2021/12/18 03:24:23;;;;;;;77.35;14.00;;;;;;;;;;5054168;28;20194;-65
2021/12/18 03:26:51;;;;;;;80.35;13.30;;;;;;;;;;5054488;28;20209;-65
2021/12/18 03:29:18;;;;;;;82.00;13.40;;;;;;;;;;5053950;28;20305;-65
2021/12/18 03:31:45;;;;;;;76.75;12.75;;;;;;;;;;5054680;28;20206;-66
2021/12/18 03:34:12;;;;;;;75.80;13.00;;;;;;;;;;5054304;28;20209;-65
2021/12/18 03:36:39;;;;;;;78.55;12.98;;;;;;;;;;5054011;28;20225;-65
2021/12/18 03:39:08;;;;;;;79.90;13.32;;;;;;;;;;5053809;28;20248;-64
2021/12/18 03:41:36;;;;;;;74.50;12.25;;;;;;;;;;5053031;28;20205;-64
2021/12/18 03:44:03;;;;;;;75.28;11.73;;;;;;;;;;5054224;28;20212;-65
2021/12/18 03:46:31;;;;;;;74.82;12.90;;;;;;;;;;5053942;28;20197;-64
2021/12/18 03:48:58;;;;;;;75.38;11.85;;;;;;;;;;5053575;28;20292;-65
2021/12/18 03:51:25;;;;;;;73.97;12.70;;;;;;;;;;5054022;28;20666;-65
2021/12/18 03:53:52;;;;;;;79.78;12.93;;;;;;;;;;5053940;28;20209;-65
2021/12/18 03:56:21;;;;;;;78.20;13.55;;;;;;;;;;5053611;28;20261;-66
2021/12/18 03:58:48;;;;;;;74.00;12.68;;;;;;;;;;5053542;28;20216;-65
2021/12/18 04:01:15;;;;;;;79.05;14.30;;;;;;;;;;5053599;28;20255;-65
2021/12/18 04:03:42;;;;;;;74.95;11.63;;;;;;;;;;5053904;28;20210;-65
2021/12/18 04:06:10;;;;;;;74.20;12.32;;;;;;;;;;5053672;28;20202;-65
2021/12/18 04:08:37;;;;;;;73.13;13.18;;;;;;;;;;5053381;28;20643;-64
2021/12/18 04:11:04;;;;;;;77.35;13.30;;;;;;;;;;5053475;28;20801;-65
2021/12/18 04:13:32;;;;;;;77.28;13.20;;;;;;;;;;5053710;28;20205;-65
2021/12/18 04:16:00;;;;;;;75.68;12.35;;;;;;;;;;5053185;28;20222;-65
2021/12/18 04:18:27;;;;;;;75.45;12.98;;;;;;;;;;5053363;28;20244;-64
2021/12/18 04:20:54;;;;;;;78.80;12.50;;;;;;;;;;5053455;28;20235;-65
2021/12/18 04:23:21;;;;;;;73.85;12.75;;;;;;;;;;5053479;28;20637;-65
2021/12/18 04:25:48;;;;;;;79.05;13.40;;;;;;;;;;5053274;28;20240;-64
2021/12/18 04:28:15;;;;;;;77.78;11.50;;;;;;;;;;5052863;28;20206;-65
2021/12/18 04:30:44;;;;;;;75.38;13.07;;;;;;;;;;5052969;28;20226;-65
2021/12/18 04:33:11;;;;;;;76.85;12.55;;;;;;;;;;5053326;28;20212;-65
2021/12/18 04:35:38;;;;;;;74.22;11.35;;;;;;;;;;5053066;28;20222;-64
2021/12/18 04:38:05;;;;;;;74.97;11.60;;;;;;;;;;5052845;28;20575;-65
2021/12/18 04:40:34;;;;;;;75.10;11.43;;;;;;;;;;5052906;28;20667;-64
2021/12/18 04:43:01;;;;;;;77.55;12.35;;;;;;;;;;5052908;28;20206;-64
2021/12/18 04:45:28;;;;;;;73.78;11.02;;;;;;;;;;5053009;28;20212;-64
2021/12/18 04:47:57;;;;;;;72.57;10.45;;;;;;;;;;5052453;28;20216;-65
2021/12/18 04:50:24;;;;;;;75.65;11.82;;;;;;;;;;5052838;28;20649;-64
2021/12/18 04:52:52;;;;;;;73.93;11.70;;;;;;;;;;5052623;28;20296;-65
2021/12/18 04:55:19;;;;;;;79.10;12.75;;;;;;;;;;5052528;28;20220;-65
2021/12/18 04:57:46;;;;;;;72.25;10.25;;;;;;;;;;5052296;28;20296;-65
2021/12/18 05:00:15;;;;;;;76.55;11.02;;;;;;;;;;5052691;28;20229;-66
2021/12/18 05:02:44;;;;;;;73.88;12.38;;;;;;;;;;5052472;28;20212;-65
2021/12/18 05:05:13;;;;;;;75.22;12.00;;;;;;;;;;5052489;28;20842;-65
2021/12/18 05:07:41;;;;;;;75.47;10.40;;;;;;;;;;5052248;28;20202;-64
2021/12/18 05:10:09;;;;;;;72.72;10.20;;;;;;;;;;5052129;28;20225;-65
2021/12/18 05:12:37;;;;;;;73.28;9.43;;;;;;;;;;5052564;28;20206;-64
2021/12/18 05:15:04;;;;;;;76.57;11.68;;;;;;;;;;5052586;28;20241;-65
2021/12/18 05:17:31;;;;;;;70.30;10.35;;;;;;;;;;5052212;28;20229;-64
2021/12/18 05:19:58;;;;;;;68.55;8.80;;;;;;;;;;5052181;28;20233;-65
2021/12/18 05:22:27;;;;;;;72.13;9.73;;;;;;;;;;5052148;28;20220;-64
2021/12/18 05:24:54;;;;;;;70.18;10.10;;;;;;;;;;5052272;28;20211;-65
2021/12/18 05:27:21;;;;;;;69.10;8.65;;;;;;;;;;5052039;28;20224;-65
2021/12/18 05:29:48;;;;;;;68.00;9.57;;;;;;;;;;5051944;28;20238;-65
2021/12/18 05:32:15;;;;;;;68.70;8.75;;;;;;;;;;5052005;28;20213;-65
2021/12/18 05:34:42;;;;;;;73.43;10.00;;;;;;;;;;5051913;28;20296;-65
2021/12/18 05:37:17;;;;;;;68.95;8.65;;;;;;;;;;5051545;28;20230;-67
2021/12/18 05:39:46;;;;;;;67.15;8.40;;;;;;;;;;5052170;28;20225;-65
2021/12/18 05:42:13;;;;;;;67.13;8.63;;;;;;;;;;5051980;28;20696;-64
2021/12/18 05:44:41;;;;;;;70.68;9.07;;;;;;;;;;5051757;28;20205;-65
2021/12/18 05:47:08;;;;;;;69.00;8.88;;;;;;;;;;5051651;28;20197;-65
2021/12/18 05:49:35;;;;;;;68.97;9.88;;;;;;;;;;5051664;28;20713;-64
2021/12/18 05:52:02;;;;;;;72.22;8.90;;;;;;;;;;5051714;28;20205;-64
2021/12/18 05:54:34;;;;;;;67.05;8.45;;;;;;;;;;5051873;28;20312;-64
2021/12/18 05:57:03;;;;;;;71.80;9.35;;;;;;;;;;5052007;28;20230;-64
2021/12/18 05:59:32;;;;;;;69.32;9.07;;;;;;;;;;5051405;28;20312;-64
2021/12/18 06:02:00;;;;;;;69.50;8.80;;;;;;;;;;5051651;28;20205;-65
2021/12/18 06:04:27;;;;;;;67.20;8.73;;;;;;;;;;5050968;28;20306;-66
2021/12/18 06:07:03;;;;;;;69.05;9.23;;;;;;;;;;5051843;28;20202;-64
2021/12/18 06:09:30;;;;;;;68.65;9.57;;;;;;;;;;5051489;28;20286;-64
2021/12/18 06:11:57;;;;;;;70.80;9.50;;;;;;;;;;5051577;28;20296;-65
2021/12/18 06:14:25;;;;;;;67.82;7.88;;;;;;;;;;5051605;28;20206;-65
2021/12/18 06:16:53;;;;;;;69.05;9.52;;;;;;;;;;5051159;28;20221;-64
2021/12/18 06:19:20;;;;;;;68.47;8.73;;;;;;;;;;5051551;28;20202;-64
2021/12/18 06:21:47;;;;;;;69.20;9.15;;;;;;;;;;5051560;28;20643;-63
2021/12/18 06:24:14;;;;;;;68.53;9.00;;;;;;;;;;5051545;28;20212;-65
2021/12/18 06:26:42;;;;;;;73.13;10.40;;;;;;;;;;5051360;28;20206;-65
2021/12/18 06:29:09;;;;;;;69.30;9.63;;;;;;;;;;5050961;28;20206;-64
2021/12/18 06:31:39;;;;;;;69.32;9.55;;;;;;;;;;5051260;28;20689;-64
2021/12/18 06:34:06;;;;;;;69.68;8.65;;;;;;;;;;5051415;28;20201;-65
2021/12/18 06:36:34;;;;;;;68.15;8.65;;;;;;;;;;5050884;28;20230;-65
2021/12/18 06:39:01;;;;;;;69.80;8.90;;;;;;;;;;5050988;28;20202;-64
2021/12/18 06:41:28;;;;;;;70.65;9.93;;;;;;;;;;5051208;28;20225;-65
2021/12/18 06:43:55;;;;;;;71.15;9.30;;;;;;;;;;5051090;28;20396;-64
2021/12/18 06:46:22;;;;;;;69.70;8.88;;;;;;;;;;5051237;28;20224;-65
2021/12/18 06:48:51;;;;;;;67.63;8.45;;;;;;;;;;5051283;28;20638;-64
2021/12/18 06:51:18;;;;;;;70.13;9.57;;;;;;;;;;5050890;28;20753;-64
2021/12/18 06:53:45;;;;;;;69.93;9.18;;;;;;;;;;5051384;28;20202;-65
2021/12/18 06:56:12;;;;;;;71.28;9.25;;;;;;;;;;5050891;28;20602;-64
2021/12/18 06:58:40;;;;;;;68.93;9.63;;;;;;;;;;5051040;28;20674;-65
2021/12/18 07:01:08;;;;;;;69.03;8.57;;;;;;;;;;5051171;28;20221;-65
2021/12/18 07:03:35;;;;;;;67.15;7.70;;;;;;;;;;5051226;28;20293;-64
2021/12/18 07:06:03;;;;;;;72.30;10.93;;;;;;;;;;5050842;28;20288;-64
2021/12/18 07:08:30;;;;;;;70.60;9.73;;;;;;;;;;5050987;28;20206;-66
2021/12/18 07:10:57;;;;;;;70.30;9.60;;;;;;;;;;5050963;28;20600;-64
2021/12/18 07:13:25;;;;;;;71.18;9.43;;;;;;;;;;5051142;28;20644;-65
2021/12/18 07:15:53;;;;;;;70.78;9.43;;;;;;;;;;5050782;28;20297;-65
2021/12/18 07:18:21;;;;;;;66.72;8.45;;;;;;;;;;5053915;28;20572;-64
2021/12/18 07:20:48;;;;;;;68.32;8.35;;;;;;;;;;5054237;28;20225;-65
2021/12/18 07:23:16;;;;;;;69.43;9.15;;;;;;;;;;5054236;28;20255;-65
2021/12/18 07:25:43;;;;;;;70.20;9.43;;;;;;;;;;5054208;28;20673;-65
2021/12/18 07:28:11;;;;;;;68.60;9.65;;;;;;;;;;5054091;28;20202;-65
2021/12/18 07:30:38;;;;;;;67.25;8.60;;;;;;;;;;5054284;28;20594;-65
2021/12/18 07:33:10;;;;;;;69.53;9.27;;;;;;;;;;5054357;28;20473;-65
2021/12/18 07:35:37;;;;;;;71.63;8.93;;;;;;;;;;5053969;28;20209;-64
2021/12/18 07:38:04;;;;;;;72.03;10.48;;;;;;;;;;5053607;28;20225;-65
2021/12/18 07:40:33;;;;;;;67.25;8.82;;;;;;;;;;5054194;28;20236;-66
2021/12/18 07:43:00;;;;;;;73.10;9.82;;;;;;;;;;5054253;28;20232;-65
2021/12/18 07:45:27;;;;;;;67.00;8.35;;;;;;;;;;5054135;28;20209;-65
2021/12/18 07:47:55;;;;;;;71.95;8.63;;;;;;;;;;5053802;28;20644;-65
2021/12/18 07:50:22;;;;;;;70.70;8.60;;;;;;;;;;5053755;28;20229;-65
2021/12/18 07:52:50;;;;;;;69.93;8.10;;;;;;;;;;5054275;28;20205;-65
2021/12/18 07:55:17;;;;;;;69.03;9.30;;;;;;;;;;5052357;28;20209;-65
2021/12/18 07:57:46;;;;;;;68.07;7.90;;;;;;;;;;5053473;28;20221;-65
2021/12/18 08:00:14;;;;;;;66.60;8.77;;;;;;;;;;5053869;28;20647;-65
2021/12/18 08:02:41;;;;;;;69.05;8.95;;;;;;;;;;5053825;28;20296;-65
2021/12/18 08:05:09;;;;;;;71.20;9.15;;;;;;;;;;5053533;28;20205;-65
2021/12/18 08:07:36;;;;;;;68.03;8.25;;;;;;;;;;5053360;28;20210;-64
2021/12/18 08:10:04;;;;;;;69.82;9.50;;;;;;;;;;5053927;28;20225;-65
2021/12/18 08:12:32;;;;;;;67.53;7.97;;;;;;;;;;5053549;28;20205;-65
2021/12/18 08:15:00;;;;;;;68.95;8.52;;;;;;;;;;5053548;28;20213;-65
2021/12/18 08:17:27;;;;;;;68.43;8.63;;;;;;;;;;5053566;28;20225;-64
2021/12/18 08:19:54;;;;;;;73.32;9.10;;;;;;;;;;5053316;28;20253;-65
2021/12/18 08:22:21;;;;;;;65.75;7.90;;;;;;;;;;5053787;28;20296;-66
2021/12/18 08:24:49;;;;;;;71.18;9.80;;;;;;;;;;5053476;28;20649;-65
2021/12/18 08:27:16;;;;;;;65.78;7.68;;;;;;;;;;5052725;28;20288;-65
2021/12/18 08:29:43;;;;;;;75.57;8.52;;;;;;;;;;5053221;28;20316;-65
2021/12/18 08:32:11;;;;;;;70.45;9.23;;;;;;;;;;5053128;28;20297;-65
2021/12/18 08:34:39;;;;;;;73.00;10.18;;;;;;;;;;5053256;28;20212;-66
2021/12/18 08:37:06;;;;;;;68.18;8.25;;;;;;;;;;5052960;28;20236;-65
2021/12/18 08:39:33;;;;;;;66.97;7.55;;;;;;;;;;5053235;28;20233;-66
2021/12/18 08:42:04;;;;;;;66.22;8.15;;;;;;;;;;5053110;28;20228;-65
2021/12/18 08:44:31;;;;;;;67.03;8.20;;;;;;;;;;5053025;28;20205;-65
2021/12/18 08:46:58;;;;;;;67.68;8.60;;;;;;;;;;5053147;28;20214;-65
2021/12/18 08:49:27;;;;;;;69.40;8.50;;;;;;;;;;5052531;28;20792;-66
2021/12/18 08:51:54;;;;;;;70.03;8.02;;;;;;;;;;5053046;28;20297;-65
2021/12/18 08:54:21;;;;;;;70.28;8.30;;;;;;;;;;5052904;28;20205;-66
2021/12/18 08:56:48;;;;;;;68.30;9.30;;;;;;;;;;5052632;28;20221;-65
2021/12/18 08:59:15;;;;;;;68.35;8.25;;;;;;;;;;5052227;28;20669;-65
2021/12/18 09:01:43;;;;;;;66.63;7.28;;;;;;;;;;5052866;28;20212;-65
2021/12/18 09:04:10;;;;;;;67.45;7.97;;;;;;;;;;5052487;28;20301;-65
2021/12/18 09:06:38;;;;;;;67.20;8.10;;;;;;;;;;5052410;28;20296;-65
2021/12/18 09:09:06;;;;;;;69.30;8.40;;;;;;;;;;5052282;28;20612;-65
2021/12/18 09:11:33;;;;;;;66.35;7.28;;;;;;;;;;5052576;28;20214;-65
2021/12/18 09:14:02;;;;;;;69.68;9.07;;;;;;;;;;5052296;28;20578;-65
2021/12/18 09:16:30;;;;;;;68.63;8.13;;;;;;;;;;5052373;28;20216;-65
2021/12/18 09:18:57;;;;;;;68.35;8.02;;;;;;;;;;5052100;28;20304;-64
2021/12/18 09:21:25;;;;;;;67.50;8.57;;;;;;;;;;5052449;28;20237;-66
2021/12/18 09:23:53;;;;;;;68.78;8.23;;;;;;;;;;5052343;28;20212;-64
2021/12/18 09:26:20;;;;;;;68.53;9.02;;;;;;;;;;5052018;28;20296;-66
2021/12/18 09:28:47;;;;;;;69.35;9.13;;;;;;;;;;5052121;28;20293;-65
2021/12/18 09:31:14;;;;;;;72.63;9.70;;;;;;;;;;5052142;28;20320;-65
2021/12/18 09:33:42;;;;;;;70.82;9.27;;;;;;;;;;5052222;28;20208;-65
2021/12/18 09:36:09;;;;;;;68.80;9.35;;;;;;;;;;5051909;28;20231;-65
2021/12/18 09:38:36;;;;;;;70.35;10.20;;;;;;;;;;5051533;28;20232;-65
2021/12/18 09:41:06;;;;;;;68.78;8.88;;;;;;;;;;5051238;28;20320;-65
2021/12/18 09:43:33;;;;;;;68.78;9.20;;;;;;;;;;5051941;28;20220;-65
2021/12/18 09:46:04;;;;;;;73.20;11.02;;;;;;;;;;5051781;28;20202;-65
2021/12/18 09:48:32;;;;;;;66.32;8.27;;;;;;;;;;5051707;28;20212;-65
2021/12/18 09:50:59;;;;;;;73.95;10.63;;;;;;;;;;5052074;28;20225;-65
2021/12/18 09:53:27;;;;;;;71.30;10.45;;;;;;;;;;5051734;28;20209;-65
2021/12/18 09:55:54;;;;;;;73.10;10.90;;;;;;;;;;5051984;28;20212;-65
2021/12/18 09:58:22;;;;;;;70.95;10.85;;;;;;;;;;5051543;28;20296;-65
2021/12/18 10:00:50;;;;;;;69.22;8.40;;;;;;;;;;5051752;28;20239;-65
2021/12/18 10:03:17;;;;;;;71.65;10.10;;;;;;;;;;5051991;28;20213;-65
2021/12/18 10:05:44;;;;;;;71.75;10.65;;;;;;;;;;5051624;28;20210;-65
2021/12/18 10:08:13;;;;;;;69.72;9.15;;;;;;;;;;5051574;28;20309;-65
2021/12/18 10:10:58;;;;;;;73.75;10.90;;;;;;;;;;5051699;28;20603;-65
2021/12/18 10:13:26;;;;;;;69.68;9.75;;;;;;;;;;5052004;28;20220;-64
2021/12/18 10:16:10;;;;;;;68.40;8.55;;;;;;;;;;5051671;28;20312;-65
2021/12/18 10:18:38;;;;;;;68.45;9.52;;;;;;;;;;5051351;28;20229;-65
2021/12/18 10:21:09;;;;;;;71.53;9.25;;;;;;;;;;5051441;28;20312;-65
2021/12/18 10:23:36;;;;;;;70.63;9.82;;;;;;;;;;5051416;28;20215;-65
2021/12/18 10:26:03;;;;;;;71.40;9.77;;;;;;;;;;5051610;28;20296;-65
2021/12/18 10:28:44;;;;;;;68.78;8.73;;;;;;;;;;5051170;28;20208;-65
2021/12/18 10:31:11;;;;;;;74.85;10.38;;;;;;;;;;5051278;28;20693;-65
2021/12/18 10:33:38;;;;;;;69.03;8.95;;;;;;;;;;5051652;28;20557;-65
2021/12/18 10:36:06;;;;;;;69.88;9.45;;;;;;;;;;5051458;28;20304;-64
2021/12/18 10:38:38;;;;;;;68.65;9.68;;;;;;;;;;5051160;28;20233;-64
2021/12/18 10:41:19;;;;;;;70.40;8.88;;;;;;;;;;5051338;28;20228;-65
2021/12/18 10:43:55;;;;;;;68.97;8.60;;;;;;;;;;5051601;28;20292;-65
2021/12/18 10:46:22;;;;;;;70.32;9.65;;;;;;;;;;5051544;28;20296;-65
2021/12/18 10:48:55;;;;;;;67.25;8.57;;;;;;;;;;5051134;28;20202;-64
2021/12/18 10:51:23;;;;;;;66.22;8.50;;;;;;;;;;5053014;28;20393;-66
2021/12/18 10:53:50;;;;;;;68.78;8.15;;;;;;;;;;5055071;28;20209;-64
2021/12/18 10:56:17;;;;;;;69.53;8.43;;;;;;;;;;5055216;28;20599;-65
2021/12/18 10:58:44;;;;;;;68.97;8.68;;;;;;;;;;5054609;28;20780;-64
2021/12/18 11:01:13;;;;;;;71.10;9.93;;;;;;;;;;5055080;28;20226;-65
2021/12/18 11:03:43;;;;;;;69.68;9.75;;;;;;;;;;5054838;28;20677;-66
2021/12/18 11:06:18;;;;;;;67.57;8.20;;;;;;;;;;5054863;28;20202;-64
2021/12/18 11:09:05;;;;;;;70.03;7.80;;;;;;;;;;5054735;28;20204;-65
2021/12/18 11:14:19;;;;;;;68.43;8.77;;;;;;;;;;5054899;28;20295;-65
2021/12/18 11:16:49;;;;;;;68.10;7.72;;;;;;;;;;5054513;28;20205;-65
2021/12/18 11:19:18;;;;;;;68.20;8.13;;;;;;;;;;5054229;28;20816;-65
2021/12/18 11:21:46;;;;;;;68.00;8.40;;;;;;;;;;5054782;28;20396;-65
2021/12/18 11:24:13;;;;;;;69.72;9.95;;;;;;;;;;5054708;28;20589;-66
2021/12/18 11:26:42;;;;;;;66.30;8.20;;;;;;;;;;5054495;28;20578;-64
2021/12/18 11:29:13;;;;;;;67.47;8.80;;;;;;;;;;5054129;28;20233;-66
2021/12/18 11:31:40;;;;;;;69.47;8.30;;;;;;;;;;5054907;28;20210;-65
2021/12/18 11:34:09;;;;;;;68.45;8.60;;;;;;;;;;5054774;28;20202;-65
2021/12/18 11:36:40;;;;;;;67.75;8.60;;;;;;;;;;5054485;28;20655;-65
2021/12/18 11:39:07;;;;;;;70.60;9.13;;;;;;;;;;5054127;28;20221;-65
2021/12/18 11:41:35;;;;;;;70.55;9.20;;;;;;;;;;5054355;28;20206;-65
2021/12/18 11:44:04;;;;;;;67.53;7.68;;;;;;;;;;5054117;28;20206;-65
2021/12/18 11:46:32;;;;;;;69.40;9.80;;;;;;;;;;5054074;28;20240;-64
2021/12/18 11:49:00;;;;;;;68.53;8.80;;;;;;;;;;5054052;28;20700;-65
2021/12/18 11:51:29;;;;;;;68.30;8.52;;;;;;;;;;5054092;28;20230;-65
2021/12/18 11:53:58;;;;;;;70.47;9.80;;;;;;;;;;5054003;28;20211;-65
2021/12/18 11:56:25;;;;;;;69.82;10.35;;;;;;;;;;5053800;28;20292;-65
2021/12/18 11:58:53;;;;;;;69.85;9.63;;;;;;;;;;5053684;28;20316;-65
2021/12/18 12:01:24;;;;;;;66.95;7.75;;;;;;;;;;5053758;28;20232;-64
2021/12/18 12:03:56;;;;;;;71.53;9.10;;;;;;;;;;5053022;28;20677;-65
2021/12/18 12:06:32;;;;;;;68.43;8.63;;;;;;;;;;5053919;28;20209;-65
2021/12/18 12:09:17;;;;;;;71.13;10.02;;;;;;;;;;5053334;28;20240;-65
2021/12/18 12:11:51;;;;;;;69.80;9.13;;;;;;;;;;5053783;28;20582;-66
2021/12/18 12:14:20;;;;;;;71.55;10.35;;;;;;;;;;5053777;28;20212;-65
2021/12/18 12:17:07;;;;;;;69.03;9.50;;;;;;;;;;5053565;28;20608;-65
2021/12/18 12:19:59;;;;;;;75.55;10.23;;;;;;;;;;5053599;28;20601;-65
2021/12/18 12:22:53;;;;;;;71.45;10.38;;;;;;;;;;5053544;28;20205;-65
2021/12/18 12:25:32;;;;;;;70.97;9.65;;;;;;;;;;5053318;28;20201;-65
2021/12/18 12:28:02;;;;;;;67.85;9.60;;;;;;;;;;5053263;28;20232;-65
2021/12/18 12:30:31;;;;;;;71.60;10.80;;;;;;;;;;5053209;28;20320;-65
2021/12/18 12:32:59;;;;;;;66.95;9.25;;;;;;;;;;5053360;28;20209;-65
2021/12/18 12:35:27;;;;;;;72.25;10.57;;;;;;;;;;5053132;28;20292;-65
2021/12/18 12:37:56;;;;;;;70.78;10.65;;;;;;;;;;5052740;28;20316;-65
2021/12/18 12:40:34;;;;;;;68.55;9.57;;;;;;;;;;5053322;28;20620;-64
2021/12/18 12:43:20;;;;;;;68.75;9.52;;;;;;;;;;5052993;28;20205;-65
2021/12/18 12:45:49;;;;;;;68.38;10.05;;;;;;;;;;5053080;28;20259;-66
2021/12/18 12:48:17;;;;;;;70.28;9.93;;;;;;;;;;5052689;28;20279;-65
2021/12/18 12:50:45;;;;;;;70.97;9.65;;;;;;;;;;5052793;28;20228;-65
2021/12/18 12:53:13;;;;;;;69.07;9.43;;;;;;;;;;5053077;28;20598;-65
2021/12/18 12:55:42;;;;;;;67.63;9.13;;;;;;;;;;5052873;28;20580;-64
2021/12/18 12:58:20;;;;;;;70.63;9.75;;;;;;;;;;5052454;28;20324;-65
2021/12/18 13:00:54;;;;;;;70.53;9.30;;;;;;;;;;5052571;28;20308;-64
2021/12/18 13:03:26;;;;;;;70.35;9.75;;;;;;;;;;5052872;28;20205;-65
2021/12/18 13:06:04;;;;;;;68.57;9.98;;;;;;;;;;5052627;28;20208;-65
2021/12/18 13:08:33;;;;;;;68.82;9.82;;;;;;;;;;5052354;28;20288;-65
2021/12/18 13:11:01;;;;;;;69.20;10.60;;;;;;;;;;5052525;28;20232;-65
2021/12/18 13:13:29;;;;;;;69.03;9.32;;;;;;;;;;5052478;28;20647;-65
2021/12/18 13:15:59;;;;;;;70.10;9.80;;;;;;;;;;5052534;28;20580;-65
2021/12/18 13:18:28;;;;;;;69.03;9.95;;;;;;;;;;5052142;28;20312;-65
2021/12/18 13:20:56;;;;;;;68.20;9.80;;;;;;;;;;5052374;28;20226;-65
2021/12/18 13:23:38;;;;;;;66.57;9.20;;;;;;;;;;5052415;28;20202;-65
2021/12/18 13:26:07;;;;;;;67.40;9.05;;;;;;;;;;5039758;28;20297;-65
2021/12/18 13:28:35;;;;;;;68.22;9.05;;;;;;;;;;5052169;28;20203;-66
2021/12/18 13:31:09;;;;;;;66.87;8.30;;;;;;;;;;5052353;28;20229;-65
2021/12/18 13:33:36;;;;;;;66.30;9.37;;;;;;;;;;5052381;28;20455;-65
2021/12/18 13:36:04;;;;;;;67.88;9.35;;;;;;;;;;5052242;28;20457;-66
2021/12/18 13:38:35;;;;;;;67.50;9.65;;;;;;;;;;5051793;28;20318;-65
2021/12/18 13:41:02;;;;;;;68.60;8.97;;;;;;;;;;5051915;28;20226;-65
2021/12/18 13:43:30;;;;;;;68.77;9.77;;;;;;;;;;5052233;28;20453;-66
2021/12/18 13:45:58;;;;;;;68.90;8.60;;;;;;;;;;5052031;28;20539;-65
2021/12/18 13:48:26;;;;;;;67.20;8.60;;;;;;;;;;5051834;28;20447;-65
2021/12/18 13:50:54;;;;;;;65.22;8.85;;;;;;;;;;5051677;28;20226;-66
2021/12/18 13:53:22;;;;;;;66.25;8.48;;;;;;;;;;5052050;28;20581;-66
2021/12/18 13:55:55;;;;;;;67.28;9.43;;;;;;;;;;5051823;28;20248;-65
2021/12/18 13:58:24;;;;;;;68.22;9.07;;;;;;;;;;5051833;28;20222;-65
2021/12/18 14:00:57;;;;;;;71.50;9.40;;;;;;;;;;5052003;28;20595;-65
2021/12/18 14:03:26;;;;;;;69.77;9.23;;;;;;;;;;5051683;28;20218;-66
2021/12/18 14:05:53;;;;;;;67.50;8.97;;;;;;;;;;5051841;28;20821;-65
2021/12/18 14:08:21;;;;;;;65.10;7.70;;;;;;;;;;5051573;28;20536;-66
2021/12/18 14:10:49;;;;;;;67.00;8.75;;;;;;;;;;5051766;28;20231;-67
2021/12/18 14:13:16;;;;;;;69.88;10.18;;;;;;;;;;5051735;28;20364;-66
2021/12/18 14:15:43;;;;;;;68.50;9.65;;;;;;;;;;5051574;28;20203;-66
2021/12/18 14:18:28;;;;;;;71.18;11.18;;;;;;;;;;5051153;28;20300;-67
2021/12/18 14:20:56;;;;;;;67.35;9.75;;;;;;;;;;5041874;28;20247;-66
2021/12/18 14:23:29;;;;;;;68.60;9.43;;;;;;;;;;5051616;28;20566;-66
2021/12/18 14:26:11;;;;;;;70.22;9.73;;;;;;;;;;5052680;28;20681;-64
2021/12/18 14:28:38;;;;;;;70.65;9.52;;;;;;;;;;5055298;28;20205;-64
2021/12/18 14:31:20;;;;;;;74.35;11.02;;;;;;;;;;5055823;28;20316;-64
2021/12/18 14:33:52;;;;;;;70.00;10.80;;;;;;;;;;5055538;28;20212;-63
2021/12/18 14:36:38;;;;;;;70.32;10.55;;;;;;;;;;5055510;28;20638;-63
2021/12/18 14:39:05;;;;;;;68.25;10.88;;;;;;;;;;5054927;28;20225;-65
2021/12/18 14:41:35;;;;;;;72.43;10.77;;;;;;;;;;5055519;28;20205;-65
2021/12/18 14:44:02;;;;;;;73.20;11.95;;;;;;;;;;5055241;28;20205;-65
2021/12/18 14:46:30;;;;;;;72.72;12.10;;;;;;;;;;5055128;28;20296;-65
2021/12/18 14:48:57;;;;;;;72.60;11.20;;;;;;;;;;5055020;28;20198;-65
2021/12/18 14:51:28;;;;;;;70.50;10.70;;;;;;;;;;5055346;28;20571;-64
2021/12/18 14:53:59;;;;;;;75.80;11.63;;;;;;;;;;5055344;28;20205;-65
2021/12/18 14:56:26;;;;;;;71.50;11.23;;;;;;;;;;5055096;28;20228;-65
2021/12/18 14:58:53;;;;;;;71.75;11.55;;;;;;;;;;5054769;28;20316;-65
2021/12/18 15:01:21;;;;;;;72.88;12.60;;;;;;;;;;5054993;28;20572;-64
2021/12/18 15:03:50;;;;;;;74.25;13.07;;;;;;;;;;5054805;28;20205;-64
2021/12/18 15:06:19;;;;;;;73.32;12.73;;;;;;;;;;5054983;28;20209;-65
2021/12/18 15:08:52;;;;;;;76.55;12.05;;;;;;;;;;5054749;28;20584;-64